Time;durP1;ratioP1;P1;durP2;ratioP2;P2;SDS_P1;SDS_P2;PMS_P1;PMS_P2;Temp;Humidity;BMP_temperature;BMP_pressure;BME280_temperature;BME280_humidity;BME280_pressure;Samples;Min_cycle;Max_cycle;Signal;HPM_P1;HPM_P2
2024/01/20 00:00:12;;;;;;;26.92;15.38;;;;;;;;;;5068240;27;100113;-76
2024/01/20 00:02:39;;;;;;;25.85;16.42;;;;;;;;;;5063256;27;101132;-76
2024/01/20 00:05:05;;;;;;;25.50;15.48;;;;;;;;;;5063176;27;100558;-75
2024/01/20 00:07:32;;;;;;;17.88;14.40;;;;;;;;;;5060929;27;100146;-75
2024/01/20 00:09:59;;;;;;;25.13;14.50;;;;;;;;;;5058787;27;100114;-76
2024/01/20 00:12:25;;;;;;;18.17;14.65;;;;;;;;;;5063459;27;99485;-76
2024/01/20 00:14:52;;;;;;;27.13;16.10;;;;;;;;;;5056591;27;101029;-75
2024/01/20 00:17:18;;;;;;;26.88;15.68;;;;;;;;;;5052073;27;99783;-75
2024/01/20 00:19:52;;;;;;;23.85;16.17;;;;;;;;;;5053755;27;99976;-74
2024/01/20 00:22:21;;;;;;;24.90;16.85;;;;;;;;;;5058038;27;100048;-75
2024/01/20 00:24:49;;;;;;;21.10;15.27;;;;;;;;;;5054777;27;101217;-76
2024/01/20 00:27:17;;;;;;;23.52;14.32;;;;;;;;;;5052945;27;100069;-76
2024/01/20 00:29:44;;;;;;;28.10;15.63;;;;;;;;;;5055167;27;99892;-77
2024/01/20 00:32:13;;;;;;;25.77;17.65;;;;;;;;;;5064175;27;100409;-75
2024/01/20 00:34:40;;;;;;;26.10;17.10;;;;;;;;;;5061491;27;99921;-76
2024/01/20 00:37:25;;;;;;;24.35;13.80;;;;;;;;;;5055076;27;100249;-77
2024/01/20 00:39:52;;;;;;;27.15;15.05;;;;;;;;;;5067168;27;100091;-75
2024/01/20 00:42:18;;;;;;;22.67;16.45;;;;;;;;;;5068136;27;100306;-76
2024/01/20 00:44:44;;;;;;;27.45;17.08;;;;;;;;;;5059664;27;100196;-76
2024/01/20 00:47:11;;;;;;;31.80;16.20;;;;;;;;;;5046741;27;100093;-76
2024/01/20 00:49:37;;;;;;;26.48;15.30;;;;;;;;;;5047269;27;99938;-76
2024/01/20 00:52:04;;;;;;;28.20;17.17;;;;;;;;;;5046901;27;100024;-76
2024/01/20 00:54:30;;;;;;;25.55;15.77;;;;;;;;;;5056536;27;101768;-75
2024/01/20 00:56:57;;;;;;;25.67;17.52;;;;;;;;;;5066435;27;100366;-76
2024/01/20 00:59:23;;;;;;;22.85;15.52;;;;;;;;;;5058504;27;100035;-76
2024/01/20 01:01:50;;;;;;;25.77;16.98;;;;;;;;;;5058209;27;99284;-76
2024/01/20 01:04:16;;;;;;;34.65;16.35;;;;;;;;;;5056191;27;100403;-77
2024/01/20 01:06:43;;;;;;;33.83;16.17;;;;;;;;;;5059691;27;99899;-77
2024/01/20 01:09:09;;;;;;;30.65;18.60;;;;;;;;;;5054629;27;99799;-77
2024/01/20 01:11:36;;;;;;;34.55;15.23;;;;;;;;;;5057417;27;100301;-75
2024/01/20 01:14:03;;;;;;;27.77;18.65;;;;;;;;;;5047613;27;100579;-76
2024/01/20 01:16:29;;;;;;;23.95;14.55;;;;;;;;;;5055144;27;99689;-76
2024/01/20 01:18:56;;;;;;;29.75;14.55;;;;;;;;;;5060215;27;100140;-76
2024/01/20 01:21:23;;;;;;;30.88;18.48;;;;;;;;;;5053535;27;99123;-76
2024/01/20 01:23:49;;;;;;;30.00;15.50;;;;;;;;;;5059872;27;100056;-76
2024/01/20 01:26:16;;;;;;;37.17;19.15;;;;;;;;;;5059308;27;99604;-76
2024/01/20 01:28:43;;;;;;;34.28;18.73;;;;;;;;;;5059941;27;99962;-76
2024/01/20 01:31:10;;;;;;;35.13;20.20;;;;;;;;;;5059033;27;99528;-77
2024/01/20 01:33:36;;;;;;;33.58;19.67;;;;;;;;;;5062674;27;100338;-76
2024/01/20 01:36:03;;;;;;;26.95;17.15;;;;;;;;;;5056747;27;100014;-76
2024/01/20 01:38:29;;;;;;;42.72;22.25;;;;;;;;;;5060195;27;100558;-76
2024/01/20 01:40:56;;;;;;;36.47;19.25;;;;;;;;;;5061473;27;100106;-75
2024/01/20 01:43:22;;;;;;;42.40;21.05;;;;;;;;;;5056106;27;100442;-77
2024/01/20 01:45:49;;;;;;;27.75;16.88;;;;;;;;;;5057305;27;100394;-76
2024/01/20 01:48:16;;;;;;;32.70;19.02;;;;;;;;;;5056702;27;100719;-77
2024/01/20 01:50:42;;;;;;;32.90;18.58;;;;;;;;;;5059511;27;100164;-77
2024/01/20 01:53:09;;;;;;;32.67;18.42;;;;;;;;;;5054429;27;100717;-77
2024/01/20 01:55:36;;;;;;;32.38;18.90;;;;;;;;;;5056290;27;100080;-76
2024/01/20 01:58:03;;;;;;;29.67;19.00;;;;;;;;;;5055852;27;100638;-76
2024/01/20 02:00:29;;;;;;;38.10;19.40;;;;;;;;;;5060804;27;99902;-77
2024/01/20 02:02:56;;;;;;;30.90;19.75;;;;;;;;;;5059743;27;100074;-76
2024/01/20 02:05:23;;;;;;;43.42;21.33;;;;;;;;;;5056205;27;99184;-77
2024/01/20 02:07:50;;;;;;;34.50;18.42;;;;;;;;;;5061166;27;100452;-76
2024/01/20 02:10:17;;;;;;;36.38;20.88;;;;;;;;;;5055600;27;101495;-78
2024/01/20 02:12:44;;;;;;;42.47;20.15;;;;;;;;;;5058893;27;100103;-77
2024/01/20 02:15:12;;;;;;;40.72;22.60;;;;;;;;;;5057707;27;100392;-76
2024/01/20 02:17:50;;;;;;;36.83;19.92;;;;;;;;;;5055814;27;100429;-77
2024/01/20 02:20:16;;;;;;;39.90;22.08;;;;;;;;;;5060007;27;100352;-76
2024/01/20 02:22:43;;;;;;;25.52;15.23;;;;;;;;;;5060599;27;99284;-77
2024/01/20 02:25:09;;;;;;;38.80;21.42;;;;;;;;;;5057307;27;100314;-76
2024/01/20 02:27:36;;;;;;;34.08;20.13;;;;;;;;;;5054263;27;100518;-76
2024/01/20 02:30:03;;;;;;;40.95;22.60;;;;;;;;;;5059588;27;100557;-76
2024/01/20 02:32:29;;;;;;;32.08;19.55;;;;;;;;;;5058300;27;100002;-76
2024/01/20 02:34:56;;;;;;;47.15;22.23;;;;;;;;;;5058288;27;99347;-75
2024/01/20 02:37:22;;;;;;;33.97;18.75;;;;;;;;;;5053424;27;100128;-76
2024/01/20 02:39:49;;;;;;;48.10;22.48;;;;;;;;;;5056424;27;99903;-77
2024/01/20 02:42:15;;;;;;;42.08;20.08;;;;;;;;;;5066000;27;100784;-76
2024/01/20 02:44:42;;;;;;;37.40;20.83;;;;;;;;;;5060389;27;99879;-76
2024/01/20 02:47:08;;;;;;;45.90;19.58;;;;;;;;;;5054852;27;100998;-76
2024/01/20 02:49:35;;;;;;;31.83;16.55;;;;;;;;;;5064265;27;100235;-76
2024/01/20 02:52:02;;;;;;;44.13;22.42;;;;;;;;;;5049910;27;99347;-76
2024/01/20 02:54:28;;;;;;;32.33;17.08;;;;;;;;;;5052341;27;100121;-76
2024/01/20 02:56:55;;;;;;;49.83;23.52;;;;;;;;;;5059927;27;100050;-76
2024/01/20 02:59:21;;;;;;;36.08;18.95;;;;;;;;;;5058820;27;100266;-77
2024/01/20 03:01:48;;;;;;;47.45;22.20;;;;;;;;;;5053584;27;100208;-76
2024/01/20 03:04:15;;;;;;;35.85;20.88;;;;;;;;;;5057080;27;101779;-76
2024/01/20 03:06:42;;;;;;;42.42;20.27;;;;;;;;;;5062642;27;99905;-76
2024/01/20 03:09:14;;;;;;;43.97;23.40;;;;;;;;;;5058493;27;99351;-76
2024/01/20 03:11:42;;;;;;;33.30;16.73;;;;;;;;;;5057394;27;99816;-77
2024/01/20 03:14:09;;;;;;;43.05;21.05;;;;;;;;;;5055315;27;100951;-77
2024/01/20 03:16:36;;;;;;;34.05;18.75;;;;;;;;;;5053471;27;101132;-76
2024/01/20 03:19:02;;;;;;;38.03;18.70;;;;;;;;;;5050001;27;101216;-77
2024/01/20 03:21:29;;;;;;;46.97;20.15;;;;;;;;;;5057889;27;100472;-77
2024/01/20 03:23:55;;;;;;;41.67;21.52;;;;;;;;;;5056267;27;100590;-77
2024/01/20 03:26:22;;;;;;;32.78;17.05;;;;;;;;;;5054219;27;99061;-77
2024/01/20 03:28:48;;;;;;;38.05;21.67;;;;;;;;;;5059443;27;99959;-77
2024/01/20 03:31:15;;;;;;;37.67;18.23;;;;;;;;;;5053193;27;99904;-76
2024/01/20 03:33:41;;;;;;;38.30;19.45;;;;;;;;;;5050339;27;100085;-76
2024/01/20 03:36:08;;;;;;;41.78;19.95;;;;;;;;;;5057259;27;100321;-76
2024/01/20 03:38:35;;;;;;;39.17;19.52;;;;;;;;;;5058290;27;100037;-76
2024/01/20 03:41:01;;;;;;;33.05;18.33;;;;;;;;;;5054292;27;100403;-78
2024/01/20 03:43:28;;;;;;;30.42;18.95;;;;;;;;;;5055851;27;100392;-76
2024/01/20 03:45:55;;;;;;;37.65;21.33;;;;;;;;;;5060013;27;100169;-76
2024/01/20 03:48:21;;;;;;;42.92;20.08;;;;;;;;;;5058290;27;100109;-76
2024/01/20 03:50:48;;;;;;;26.17;14.00;;;;;;;;;;5065038;27;100154;-77
2024/01/20 03:53:14;;;;;;;31.42;17.05;;;;;;;;;;5056067;27;99924;-76
2024/01/20 03:55:41;;;;;;;30.80;17.27;;;;;;;;;;5062896;27;100998;-77
2024/01/20 03:58:07;;;;;;;35.08;16.63;;;;;;;;;;5062025;27;100166;-76
2024/01/20 04:00:34;;;;;;;36.95;18.33;;;;;;;;;;5062814;27;99448;-75
2024/01/20 04:03:02;;;;;;;35.28;19.17;;;;;;;;;;5052698;27;99220;-75
2024/01/20 04:05:29;;;;;;;29.15;16.80;;;;;;;;;;5058692;27;100128;-76
2024/01/20 04:07:55;;;;;;;36.33;20.90;;;;;;;;;;5058427;27;99903;-76
2024/01/20 04:10:22;;;;;;;34.95;16.25;;;;;;;;;;5064409;27;99268;-76
2024/01/20 04:12:48;;;;;;;34.30;17.85;;;;;;;;;;5063568;27;99709;-74
2024/01/20 04:15:15;;;;;;;36.40;17.67;;;;;;;;;;5062061;27;99162;-75
2024/01/20 04:17:41;;;;;;;30.05;18.35;;;;;;;;;;5057646;27;99798;-76
2024/01/20 04:20:08;;;;;;;36.95;18.70;;;;;;;;;;5059514;27;99145;-75
2024/01/20 04:22:35;;;;;;;29.45;19.08;;;;;;;;;;5063661;27;99789;-76
2024/01/20 04:25:01;;;;;;;34.38;18.13;;;;;;;;;;5056182;27;99119;-76
2024/01/20 04:27:28;;;;;;;33.28;17.80;;;;;;;;;;5061579;27;100096;-77
2024/01/20 04:29:54;;;;;;;37.40;19.02;;;;;;;;;;5056684;27;100187;-76
2024/01/20 04:32:21;;;;;;;32.05;15.70;;;;;;;;;;5065881;27;100878;-77
2024/01/20 04:34:47;;;;;;;31.08;18.45;;;;;;;;;;5064943;27;100119;-76
2024/01/20 04:37:13;;;;;;;33.78;18.02;;;;;;;;;;5058825;27;100206;-76
2024/01/20 04:39:40;;;;;;;36.88;16.38;;;;;;;;;;5063237;27;100028;-76
2024/01/20 04:42:08;;;;;;;39.63;19.25;;;;;;;;;;5055062;27;100265;-76
2024/01/20 04:44:34;;;;;;;30.27;16.83;;;;;;;;;;5058252;27;99959;-76
2024/01/20 04:47:01;;;;;;;33.92;18.67;;;;;;;;;;5060951;27;100249;-77
2024/01/20 04:49:28;;;;;;;34.95;19.00;;;;;;;;;;5058274;27;101033;-76
2024/01/20 04:51:55;;;;;;;32.08;17.45;;;;;;;;;;5056592;27;100290;-77
2024/01/20 04:54:21;;;;;;;28.90;16.67;;;;;;;;;;5065464;27;101159;-77
2024/01/20 04:56:48;;;;;;;28.08;17.40;;;;;;;;;;5064144;27;99920;-77
2024/01/20 04:59:14;;;;;;;37.63;18.00;;;;;;;;;;5058214;27;100187;-75
2024/01/20 05:01:41;;;;;;;27.48;16.45;;;;;;;;;;5055897;27;100288;-76
2024/01/20 05:04:07;;;;;;;34.53;17.90;;;;;;;;;;5057432;27;99977;-76
2024/01/20 05:06:34;;;;;;;29.95;15.75;;;;;;;;;;5060508;27;101517;-75
2024/01/20 05:09:01;;;;;;;39.92;15.18;;;;;;;;;;5058850;27;100241;-76
2024/01/20 05:11:27;;;;;;;32.60;17.30;;;;;;;;;;5061305;27;100291;-76
2024/01/20 05:13:54;;;;;;;41.15;17.88;;;;;;;;;;5059877;27;100362;-76
2024/01/20 05:16:20;;;;;;;34.05;18.95;;;;;;;;;;5061642;27;100150;-77
2024/01/20 05:18:48;;;;;;;36.35;17.10;;;;;;;;;;5060874;27;100091;-76
2024/01/20 05:21:15;;;;;;;18.23;12.57;;;;;;;;;;5059133;27;100173;-76
2024/01/20 05:23:41;;;;;;;29.13;16.60;;;;;;;;;;5056821;27;100334;-75
2024/01/20 05:26:08;;;;;;;35.30;18.50;;;;;;;;;;5059218;27;100131;-76
2024/01/20 05:28:34;;;;;;;35.90;19.10;;;;;;;;;;5058086;27;99896;-76
2024/01/20 05:31:01;;;;;;;33.97;17.10;;;;;;;;;;5058808;27;99902;-76
2024/01/20 05:33:27;;;;;;;25.20;15.50;;;;;;;;;;5057483;27;100130;-77
2024/01/20 05:35:56;;;;;;;36.78;16.20;;;;;;;;;;5061354;27;100738;-77
2024/01/20 05:38:22;;;;;;;34.50;18.33;;;;;;;;;;5056661;27;99501;-76
2024/01/20 05:40:48;;;;;;;32.45;13.68;;;;;;;;;;5056366;27;100216;-77
2024/01/20 05:43:15;;;;;;;36.97;17.88;;;;;;;;;;5056228;27;100147;-76
2024/01/20 05:45:41;;;;;;;32.70;16.77;;;;;;;;;;5060827;27;100403;-76
2024/01/20 05:48:08;;;;;;;31.55;18.00;;;;;;;;;;5059572;27;100373;-76
2024/01/20 05:50:34;;;;;;;30.40;15.85;;;;;;;;;;5054288;27;99113;-75
2024/01/20 05:53:01;;;;;;;44.25;18.85;;;;;;;;;;5056735;27;100268;-75
2024/01/20 05:55:28;;;;;;;34.35;17.52;;;;;;;;;;5055702;27;100114;-76
2024/01/20 05:57:54;;;;;;;39.63;19.63;;;;;;;;;;5061964;27;100361;-75
2024/01/20 06:00:22;;;;;;;35.67;17.13;;;;;;;;;;5066098;27;99919;-76
2024/01/20 06:02:48;;;;;;;38.15;17.55;;;;;;;;;;5045780;27;99390;-76
2024/01/20 06:05:15;;;;;;;40.83;16.75;;;;;;;;;;5045329;27;100421;-76
2024/01/20 06:07:41;;;;;;;44.95;22.50;;;;;;;;;;5045603;27;100860;-77
2024/01/20 06:10:08;;;;;;;38.40;17.38;;;;;;;;;;5045393;27;99995;-77
2024/01/20 06:12:34;;;;;;;42.60;19.00;;;;;;;;;;5046146;27;100315;-75
2024/01/20 06:15:01;;;;;;;42.33;20.45;;;;;;;;;;5051718;27;100188;-77
2024/01/20 06:17:27;;;;;;;34.67;16.90;;;;;;;;;;5066272;27;100132;-76
2024/01/20 06:19:54;;;;;;;39.42;19.00;;;;;;;;;;5069625;27;100368;-77
2024/01/20 06:22:21;;;;;;;43.08;13.25;;;;;;;;;;5066564;27;100008;-77
2024/01/20 06:24:47;;;;;;;33.03;17.77;;;;;;;;;;5066198;27;100135;-77
2024/01/20 06:27:14;;;;;;;36.50;15.98;;;;;;;;;;5066211;27;100140;-77
2024/01/20 06:29:41;;;;;;;31.42;16.48;;;;;;;;;;5065813;27;100077;-79
2024/01/20 06:32:08;;;;;;;33.28;18.02;;;;;;;;;;5065832;27;99827;-76
2024/01/20 06:34:34;;;;;;;32.72;17.15;;;;;;;;;;5066406;27;100139;-78
2024/01/20 06:37:00;;;;;;;38.00;17.15;;;;;;;;;;5065511;27;100150;-78
2024/01/20 06:39:27;;;;;;;29.27;16.75;;;;;;;;;;5066333;27;100420;-77
2024/01/20 06:41:53;;;;;;;34.92;17.45;;;;;;;;;;5069483;27;99350;-76
2024/01/20 06:44:22;;;;;;;31.25;16.05;;;;;;;;;;5065514;27;99823;-77
2024/01/20 06:46:48;;;;;;;29.38;14.88;;;;;;;;;;5066047;27;99007;-76
2024/01/20 06:49:15;;;;;;;28.13;15.05;;;;;;;;;;5066846;27;99967;-77
2024/01/20 06:51:43;;;;;;;31.73;17.20;;;;;;;;;;5065579;27;99350;-76
2024/01/20 06:54:09;;;;;;;22.15;15.05;;;;;;;;;;5067451;27;100823;-76
2024/01/20 06:56:36;;;;;;;28.73;15.73;;;;;;;;;;5065706;27;100162;-77
2024/01/20 06:59:02;;;;;;;27.90;15.95;;;;;;;;;;5064923;27;101017;-76
2024/01/20 07:01:28;;;;;;;23.70;14.00;;;;;;;;;;5066112;27;100194;-77
2024/01/20 07:03:55;;;;;;;30.92;15.80;;;;;;;;;;5068836;27;99347;-78
2024/01/20 07:06:23;;;;;;;31.85;16.58;;;;;;;;;;5064979;27;99539;-76
2024/01/20 07:08:50;;;;;;;33.75;15.63;;;;;;;;;;5065393;27;99289;-76
2024/01/20 07:11:16;;;;;;;43.63;19.70;;;;;;;;;;5066621;27;99871;-77
2024/01/20 07:13:43;;;;;;;32.80;17.10;;;;;;;;;;5066870;27;99442;-75
2024/01/20 07:16:10;;;;;;;33.60;15.32;;;;;;;;;;5066875;27;100114;-76
2024/01/20 07:18:37;;;;;;;25.52;15.32;;;;;;;;;;5068295;27;99267;-77
2024/01/20 07:21:04;;;;;;;33.95;17.13;;;;;;;;;;5067019;27;100468;-76
2024/01/20 07:23:31;;;;;;;24.73;15.10;;;;;;;;;;5069318;27;100036;-76
2024/01/20 07:26:00;;;;;;;30.05;16.20;;;;;;;;;;5070966;27;99376;-77
2024/01/20 07:28:27;;;;;;;27.65;15.18;;;;;;;;;;5069240;27;100208;-73
2024/01/20 07:30:53;;;;;;;32.70;15.45;;;;;;;;;;5069426;27;100009;-74
2024/01/20 07:33:20;;;;;;;31.20;14.25;;;;;;;;;;5067532;27;99488;-74
2024/01/20 07:35:47;;;;;;;25.20;14.43;;;;;;;;;;5069393;27;99942;-75
2024/01/20 07:38:13;;;;;;;37.47;19.00;;;;;;;;;;5069175;27;99841;-75
2024/01/20 07:40:40;;;;;;;20.38;12.90;;;;;;;;;;5068397;27;100385;-76
2024/01/20 07:43:06;;;;;;;33.42;18.88;;;;;;;;;;5069006;27;100136;-75
2024/01/20 07:45:33;;;;;;;29.50;16.20;;;;;;;;;;5068442;27;100070;-76
2024/01/20 07:48:00;;;;;;;33.22;18.55;;;;;;;;;;5071316;27;100242;-73
2024/01/20 07:50:26;;;;;;;38.60;17.88;;;;;;;;;;5068232;27;99083;-74
2024/01/20 07:52:53;;;;;;;35.28;16.77;;;;;;;;;;5068980;27;100546;-72
2024/01/20 07:55:19;;;;;;;25.02;13.05;;;;;;;;;;5067695;27;100144;-75
2024/01/20 07:57:45;;;;;;;37.25;17.58;;;;;;;;;;5068802;27;99954;-75
2024/01/20 08:00:12;;;;;;;23.40;12.93;;;;;;;;;;5068235;27;100325;-75
2024/01/20 08:02:39;;;;;;;29.98;14.65;;;;;;;;;;5068388;27;100050;-75
2024/01/20 08:05:06;;;;;;;27.50;15.57;;;;;;;;;;5061728;27;99278;-75
2024/01/20 08:07:32;;;;;;;27.25;15.30;;;;;;;;;;5048179;27;100249;-75
2024/01/20 08:09:59;;;;;;;21.67;12.75;;;;;;;;;;5050071;27;99982;-76
2024/01/20 08:12:25;;;;;;;30.40;14.38;;;;;;;;;;5047791;27;98553;-76
2024/01/20 08:14:52;;;;;;;24.80;14.75;;;;;;;;;;5047606;27;99413;-77
2024/01/20 08:17:18;;;;;;;27.70;15.50;;;;;;;;;;5047139;27;101294;-76
2024/01/20 08:19:49;;;;;;;27.60;13.52;;;;;;;;;;5047713;27;100166;-76
2024/01/20 08:22:15;;;;;;;24.30;14.38;;;;;;;;;;5046932;27;100089;-76
2024/01/20 08:24:42;;;;;;;20.85;10.57;;;;;;;;;;5048164;27;99867;-76
2024/01/20 08:27:08;;;;;;;23.67;11.82;;;;;;;;;;5048099;27;99527;-76
2024/01/20 08:29:35;;;;;;;23.98;14.02;;;;;;;;;;5050185;27;99338;-75
2024/01/20 08:32:02;;;;;;;33.85;14.10;;;;;;;;;;5047392;27;99304;-75
2024/01/20 08:34:28;;;;;;;23.25;13.38;;;;;;;;;;5047402;27;99955;-76
2024/01/20 08:36:55;;;;;;;25.45;14.02;;;;;;;;;;5046982;27;99929;-76
2024/01/20 08:39:21;;;;;;;29.15;14.45;;;;;;;;;;5047701;27;100717;-76
2024/01/20 08:41:48;;;;;;;28.45;16.52;;;;;;;;;;5047816;27;99992;-74
2024/01/20 08:44:14;;;;;;;26.85;17.13;;;;;;;;;;5046642;27;99915;-75
2024/01/20 08:46:41;;;;;;;24.35;14.02;;;;;;;;;;5047730;27;100308;-76
2024/01/20 08:49:07;;;;;;;24.02;13.88;;;;;;;;;;5047755;27;99831;-76
2024/01/20 08:51:34;;;;;;;23.15;13.90;;;;;;;;;;5050456;27;100012;-77
2024/01/20 08:54:00;;;;;;;28.23;15.15;;;;;;;;;;5047266;27;100030;-77
2024/01/20 08:56:27;;;;;;;25.50;14.88;;;;;;;;;;5047160;27;99965;-76
2024/01/20 08:58:53;;;;;;;26.65;16.95;;;;;;;;;;5046372;27;101164;-76
2024/01/20 09:01:20;;;;;;;27.42;14.98;;;;;;;;;;5047003;27;98852;-76
2024/01/20 09:03:46;;;;;;;24.38;13.88;;;;;;;;;;5060369;27;100116;-76
2024/01/20 09:06:13;;;;;;;24.48;13.73;;;;;;;;;;5066520;27;100429;-75
2024/01/20 09:08:39;;;;;;;20.05;12.85;;;;;;;;;;5067738;27;99724;-76
2024/01/20 09:11:06;;;;;;;33.88;15.10;;;;;;;;;;5067102;27;100003;-75
2024/01/20 09:13:32;;;;;;;30.48;15.38;;;;;;;;;;5070294;27;100636;-77
2024/01/20 09:16:01;;;;;;;32.38;14.57;;;;;;;;;;5067713;27;100024;-75
2024/01/20 09:18:28;;;;;;;22.95;14.25;;;;;;;;;;5066189;27;100221;-75
2024/01/20 09:20:54;;;;;;;33.33;15.43;;;;;;;;;;5067468;27;99964;-75
2024/01/20 09:23:21;;;;;;;31.58;14.98;;;;;;;;;;5066967;27;99908;-76
2024/01/20 09:25:48;;;;;;;27.77;15.23;;;;;;;;;;5066484;27;100241;-76
2024/01/20 09:28:14;;;;;;;32.05;16.73;;;;;;;;;;5060866;27;99888;-74
2024/01/20 09:30:40;;;;;;;29.17;14.88;;;;;;;;;;5052345;27;100126;-75
2024/01/20 09:33:07;;;;;;;31.20;15.02;;;;;;;;;;5048277;27;100882;-76
2024/01/20 09:35:34;;;;;;;25.95;14.80;;;;;;;;;;5054870;27;100300;-76
2024/01/20 09:38:00;;;;;;;33.08;17.65;;;;;;;;;;5048052;27;100234;-75
2024/01/20 09:40:29;;;;;;;25.88;14.65;;;;;;;;;;5052949;27;99969;-75
2024/01/20 09:42:55;;;;;;;27.75;14.40;;;;;;;;;;5048985;27;101221;-74
2024/01/20 09:45:22;;;;;;;30.23;15.02;;;;;;;;;;5047971;27;100350;-75
2024/01/20 09:47:49;;;;;;;29.67;15.98;;;;;;;;;;5050803;27;99922;-76
2024/01/20 09:50:15;;;;;;;26.67;15.65;;;;;;;;;;5051449;27;100884;-76
2024/01/20 09:52:57;;;;;;;29.52;14.07;;;;;;;;;;5059890;27;100142;-76
2024/01/20 09:55:25;;;;;;;30.05;13.55;;;;;;;;;;5055238;27;100126;-76
2024/01/20 09:57:52;;;;;;;29.45;15.75;;;;;;;;;;5065355;27;99936;-75
2024/01/20 10:00:20;;;;;;;23.50;12.93;;;;;;;;;;5050873;27;100049;-76
2024/01/20 10:02:47;;;;;;;24.20;14.50;;;;;;;;;;5051975;27;99976;-76
2024/01/20 10:05:14;;;;;;;25.63;14.32;;;;;;;;;;5050096;27;99994;-75
2024/01/20 10:07:41;;;;;;;34.10;16.45;;;;;;;;;;5052734;27;100078;-75
2024/01/20 10:10:09;;;;;;;27.85;16.98;;;;;;;;;;5051765;27;100079;-75
2024/01/20 10:12:36;;;;;;;27.73;15.57;;;;;;;;;;5049275;27;101004;-76
2024/01/20 10:15:03;;;;;;;29.23;16.40;;;;;;;;;;5050068;27;100435;-74
2024/01/20 10:17:35;;;;;;;33.78;18.17;;;;;;;;;;5047598;27;100578;-74
2024/01/20 10:20:03;;;;;;;23.02;13.55;;;;;;;;;;5052971;27;100791;-73
2024/01/20 10:22:30;;;;;;;25.70;15.18;;;;;;;;;;5046977;27;100127;-73
2024/01/20 10:24:57;;;;;;;33.30;16.20;;;;;;;;;;5049219;27;99593;-74
2024/01/20 10:27:23;;;;;;;32.30;14.57;;;;;;;;;;5051174;27;100462;-75
2024/01/20 10:29:50;;;;;;;30.08;15.05;;;;;;;;;;5047942;27;99340;-74
2024/01/20 10:32:16;;;;;;;23.75;15.70;;;;;;;;;;5052389;27;100003;-74
2024/01/20 10:34:44;;;;;;;25.88;17.20;;;;;;;;;;5048592;27;98957;-74
2024/01/20 10:37:12;;;;;;;29.05;15.10;;;;;;;;;;5046910;27;100080;-74
2024/01/20 10:39:40;;;;;;;33.45;16.27;;;;;;;;;;5050322;27;100057;-76
2024/01/20 10:42:08;;;;;;;27.23;15.80;;;;;;;;;;5049209;27;100322;-74
2024/01/20 10:44:36;;;;;;;20.50;13.82;;;;;;;;;;5052549;27;100205;-74
2024/01/20 10:47:05;;;;;;;23.00;13.23;;;;;;;;;;5047753;27;99894;-75
2024/01/20 10:49:32;;;;;;;18.95;13.77;;;;;;;;;;5047363;27;100003;-75
2024/01/20 10:51:59;;;;;;;23.95;15.75;;;;;;;;;;5052360;27;100431;-74
2024/01/20 10:54:26;;;;;;;28.23;17.25;;;;;;;;;;5059429;27;99904;-76
2024/01/20 10:56:53;;;;;;;23.88;14.68;;;;;;;;;;5048566;27;100118;-76
2024/01/20 10:59:22;;;;;;;20.75;13.60;;;;;;;;;;5052232;27;100498;-75
2024/01/20 11:01:49;;;;;;;30.90;13.38;;;;;;;;;;5055188;27;101016;-76
2024/01/20 11:04:19;;;;;;;25.98;14.02;;;;;;;;;;5053084;27;100606;-75
2024/01/20 11:06:46;;;;;;;22.23;13.02;;;;;;;;;;5053856;27;100014;-75
2024/01/20 11:09:20;;;;;;;21.65;13.25;;;;;;;;;;5047636;27;100278;-75
2024/01/20 11:12:00;;;;;;;19.05;12.52;;;;;;;;;;5048450;27;100183;-76
2024/01/20 11:14:33;;;;;;;21.10;12.82;;;;;;;;;;5048012;27;100136;-76
2024/01/20 11:17:12;;;;;;;22.30;13.15;;;;;;;;;;5055738;27;100219;-75
2024/01/20 11:19:39;;;;;;;24.52;14.65;;;;;;;;;;5047430;27;100036;-76
2024/01/20 11:22:26;;;;;;;17.63;11.63;;;;;;;;;;5050802;27;100267;-77
2024/01/20 11:24:54;;;;;;;20.42;13.10;;;;;;;;;;5050195;27;99925;-76
2024/01/20 11:27:20;;;;;;;19.10;13.98;;;;;;;;;;5047133;27;100071;-76
2024/01/20 11:29:47;;;;;;;21.75;14.30;;;;;;;;;;5052223;27;100816;-77
2024/01/20 11:32:13;;;;;;;20.23;11.73;;;;;;;;;;5050452;27;100689;-76
2024/01/20 11:34:40;;;;;;;21.27;12.93;;;;;;;;;;5048829;27;100260;-75
2024/01/20 11:37:08;;;;;;;20.98;13.18;;;;;;;;;;5045759;27;100133;-75
2024/01/20 11:39:34;;;;;;;21.50;12.32;;;;;;;;;;5052550;27;99190;-75
2024/01/20 11:42:02;;;;;;;24.27;12.93;;;;;;;;;;5052359;27;100086;-73
2024/01/20 11:44:31;;;;;;;15.50;12.13;;;;;;;;;;5044322;27;99985;-71
2024/01/20 11:46:58;;;;;;;18.02;11.32;;;;;;;;;;5051204;27;100248;-76
2024/01/20 11:49:25;;;;;;;24.17;12.45;;;;;;;;;;5052639;27;101878;-75
2024/01/20 11:51:51;;;;;;;20.23;12.90;;;;;;;;;;5046716;27;101126;-76
2024/01/20 11:54:18;;;;;;;16.58;12.38;;;;;;;;;;5049873;27;99214;-76
2024/01/20 11:56:44;;;;;;;18.55;11.10;;;;;;;;;;5051126;27;100471;-75
2024/01/20 11:59:12;;;;;;;18.08;12.18;;;;;;;;;;5046593;27;100221;-75
2024/01/20 12:01:39;;;;;;;14.25;10.77;;;;;;;;;;5050032;27;100038;-74
2024/01/20 12:04:05;;;;;;;21.75;12.20;;;;;;;;;;5063942;27;102206;-76
2024/01/20 12:06:33;;;;;;;19.70;11.52;;;;;;;;;;5068542;27;101932;-77
2024/01/20 12:09:00;;;;;;;18.58;11.27;;;;;;;;;;5071617;27;99846;-77
2024/01/20 12:11:26;;;;;;;14.35;9.80;;;;;;;;;;5068735;27;100361;-76
2024/01/20 12:13:53;;;;;;;13.13;10.15;;;;;;;;;;5068685;27;99906;-74
2024/01/20 12:16:19;;;;;;;14.75;11.35;;;;;;;;;;5066927;27;99349;-73
2024/01/20 12:18:46;;;;;;;14.25;10.35;;;;;;;;;;5068528;27;100449;-75
2024/01/20 12:21:13;;;;;;;13.05;8.60;;;;;;;;;;5063792;27;100193;-74
2024/01/20 12:23:40;;;;;;;17.25;10.82;;;;;;;;;;5059476;27;99798;-74
2024/01/20 12:26:12;;;;;;;15.93;10.38;;;;;;;;;;5047623;27;100769;-75
2024/01/20 12:28:39;;;;;;;;;;;;;;;;;;5059835;27;100139;-75
2024/01/20 12:31:05;;;;;;;13.98;9.15;;;;;;;;;;5070408;27;129164;-75
2024/01/20 12:33:32;;;;;;;14.85;9.85;;;;;;;;;;5061273;27;100007;-75
2024/01/20 12:35:58;;;;;;;21.55;11.40;;;;;;;;;;5046792;27;99709;-75
2024/01/20 12:38:24;;;;;;;15.20;10.95;;;;;;;;;;5047811;27;100290;-75
2024/01/20 12:40:51;;;;;;;22.35;8.07;;;;;;;;;;5047022;27;99925;-75
2024/01/20 12:43:18;;;;;;;18.40;11.35;;;;;;;;;;5046906;27;101076;-75
2024/01/20 12:45:44;;;;;;;14.70;10.10;;;;;;;;;;5047172;27;100230;-75
2024/01/20 12:48:11;;;;;;;15.50;9.77;;;;;;;;;;5047273;27;100051;-75
2024/01/20 12:50:37;;;;;;;13.93;9.55;;;;;;;;;;5050097;27;99965;-75
2024/01/20 12:53:04;;;;;;;13.43;10.70;;;;;;;;;;5047262;27;99803;-75
2024/01/20 12:55:31;;;;;;;11.75;8.30;;;;;;;;;;5047525;27;99892;-75
2024/01/20 12:57:58;;;;;;;18.02;10.52;;;;;;;;;;5046946;27;99569;-75
2024/01/20 13:00:25;;;;;;;14.18;8.70;;;;;;;;;;5047452;27;100435;-75
2024/01/20 13:02:55;;;;;;;20.20;9.77;;;;;;;;;;5046029;27;99819;-75
2024/01/20 13:05:22;;;;;;;20.65;9.80;;;;;;;;;;5046221;27;100882;-76
2024/01/20 13:07:50;;;;;;;15.25;9.75;;;;;;;;;;5047363;27;99822;-73
2024/01/20 13:10:17;;;;;;;13.25;8.45;;;;;;;;;;5046954;27;99738;-73
2024/01/20 13:12:44;;;;;;;11.07;8.32;;;;;;;;;;5049625;27;100137;-73
2024/01/20 13:15:11;;;;;;;16.48;9.48;;;;;;;;;;5046244;27;99776;-73
2024/01/20 13:17:37;;;;;;;12.40;9.27;;;;;;;;;;5046657;27;100456;-74
2024/01/20 13:20:04;;;;;;;14.23;9.55;;;;;;;;;;5046451;27;99889;-73
2024/01/20 13:22:31;;;;;;;13.30;10.10;;;;;;;;;;5047654;27;99508;-74
2024/01/20 13:24:57;;;;;;;11.68;9.20;;;;;;;;;;5045823;27;100435;-76
2024/01/20 13:27:24;;;;;;;13.32;8.85;;;;;;;;;;5046734;27;99914;-75
2024/01/20 13:29:50;;;;;;;10.93;8.30;;;;;;;;;;5046473;27;100030;-76
2024/01/20 13:32:17;;;;;;;13.13;9.13;;;;;;;;;;5047684;27;100504;-75
2024/01/20 13:34:43;;;;;;;16.48;10.73;;;;;;;;;;5053254;27;100056;-74
2024/01/20 13:37:10;;;;;;;17.42;10.02;;;;;;;;;;5051784;27;100652;-74
2024/01/20 13:39:37;;;;;;;13.38;8.25;;;;;;;;;;5051741;27;100056;-74
2024/01/20 13:42:04;;;;;;;16.75;8.57;;;;;;;;;;5051656;27;99945;-75
2024/01/20 13:44:30;;;;;;;11.40;8.63;;;;;;;;;;5052878;27;100632;-78
2024/01/20 13:46:57;;;;;;;15.32;9.23;;;;;;;;;;5047290;27;99965;-76
2024/01/20 13:49:23;;;;;;;12.82;9.32;;;;;;;;;;5051185;27;99275;-76
2024/01/20 13:51:51;;;;;;;12.90;9.32;;;;;;;;;;5053837;27;100120;-76
2024/01/20 13:54:18;;;;;;;15.65;9.57;;;;;;;;;;5048685;27;101102;-78
2024/01/20 13:56:44;;;;;;;13.35;9.68;;;;;;;;;;5054290;27;101039;-78
2024/01/20 13:59:11;;;;;;;11.50;7.40;;;;;;;;;;5048651;27;99976;-77
2024/01/20 14:01:37;;;;;;;14.23;9.23;;;;;;;;;;5053159;27;100396;-77
2024/01/20 14:04:04;;;;;;;11.18;7.00;;;;;;;;;;5048208;27;100292;-77
2024/01/20 14:06:31;;;;;;;9.85;7.18;;;;;;;;;;5054205;27;99909;-77
2024/01/20 14:08:57;;;;;;;11.00;8.65;;;;;;;;;;5054617;27;100127;-77